createdAt,value
2022-11-16T00:00:05.380Z,11.38
2022-11-16T00:00:38.916Z,10.98
2022-11-16T00:01:14.157Z,10.65
2022-11-16T00:01:46.188Z,12.20
2022-11-16T00:02:19.134Z,11.35
2022-11-16T00:02:51.815Z,11.13
2022-11-16T00:03:23.725Z,10.40
2022-11-16T00:03:58.299Z,10.48
2022-11-16T00:04:30.248Z,10.13
2022-11-16T00:05:02.143Z,11.48
2022-11-16T00:05:36.360Z,10.27
2022-11-16T00:06:09.913Z,9.93
2022-11-16T00:06:41.982Z,11.70
2022-11-16T00:07:14.919Z,11.10
2022-11-16T00:07:46.763Z,11.88
2022-11-16T00:08:18.613Z,11.02
2022-11-16T00:09:07.528Z,9.85
2022-11-16T00:09:40.365Z,9.68
2022-11-16T00:10:12.628Z,10.93
2022-11-16T00:10:44.450Z,10.20
2022-11-16T00:11:18.951Z,10.00
2022-11-16T00:11:52.311Z,9.27
2022-11-16T00:12:24.084Z,8.45
2022-11-16T00:12:55.888Z,8.57
2022-11-16T00:13:28.723Z,8.77
2022-11-16T00:14:00.683Z,9.45
2022-11-16T00:14:35.884Z,9.00
2022-11-16T00:15:08.295Z,8.10
2022-11-16T00:15:40.178Z,9.98
2022-11-16T00:16:15.933Z,8.40
2022-11-16T00:16:47.773Z,7.85
2022-11-16T00:17:19.588Z,7.85
2022-11-16T00:17:52.392Z,10.77
2022-11-16T00:18:24.488Z,12.60
2022-11-16T00:18:58.162Z,8.27
2022-11-16T00:19:31.350Z,8.27
2022-11-16T00:20:03.882Z,8.60
2022-11-16T00:20:38.588Z,8.25
2022-11-16T00:21:11.759Z,8.18
2022-11-16T00:21:44.032Z,8.38
2022-11-16T00:22:15.887Z,9.65
2022-11-16T00:22:48.650Z,8.57
2022-11-16T00:23:20.568Z,11.98
2022-11-16T00:23:52.648Z,7.88
2022-11-16T00:24:25.637Z,8.95
2022-11-16T00:24:57.536Z,9.02
2022-11-16T00:25:29.364Z,7.93
2022-11-16T00:26:05.928Z,9.88
2022-11-16T00:26:37.750Z,10.85
2022-11-16T00:27:09.640Z,8.38
2022-11-16T00:27:42.427Z,9.02
2022-11-16T00:28:14.308Z,8.43
2022-11-16T00:28:46.674Z,9.80
2022-11-16T00:29:21.267Z,8.48
2022-11-16T00:29:53.117Z,15.13
2022-11-16T00:30:24.940Z,7.90
2022-11-16T00:31:00.121Z,8.27
2022-11-16T00:31:31.991Z,9.43
2022-11-16T00:32:04.040Z,9.93
2022-11-16T00:32:36.932Z,9.60
2022-11-16T00:33:12.967Z,9.07
2022-11-16T00:33:45.001Z,9.77
2022-11-16T00:34:18.242Z,10.85
2022-11-16T00:34:50.057Z,8.00
2022-11-16T00:35:22.012Z,10.02
2022-11-16T00:35:56.332Z,8.73
2022-11-16T00:36:28.161Z,8.90
2022-11-16T00:37:00.006Z,9.88
2022-11-16T00:37:32.833Z,10.90
2022-11-16T00:38:04.663Z,10.13
2022-11-16T00:38:36.858Z,9.98
2022-11-16T00:39:12.202Z,9.45
2022-11-16T00:39:44.035Z,8.90
2022-11-16T00:40:16.189Z,9.55
2022-11-16T00:40:49.229Z,9.65
2022-11-16T00:41:21.219Z,7.97
2022-11-16T00:41:53.039Z,9.20
2022-11-16T00:42:25.833Z,8.40
2022-11-16T00:42:57.636Z,9.38
2022-11-16T00:43:29.659Z,9.27
2022-11-16T00:44:02.465Z,8.93
2022-11-16T00:44:34.276Z,9.80
2022-11-16T00:45:07.048Z,9.07
2022-11-16T00:45:41.539Z,9.27
2022-11-16T00:46:13.349Z,8.75
2022-11-16T00:46:45.347Z,7.88
2022-11-16T00:47:18.230Z,10.32
2022-11-16T00:47:50.088Z,8.35
2022-11-16T00:48:22.018Z,9.63
2022-11-16T00:48:55.217Z,16.85
2022-11-16T00:49:27.039Z,8.90
2022-11-16T00:49:58.884Z,9.60
2022-11-16T00:50:31.997Z,8.85
2022-11-16T00:51:05.625Z,8.32
2022-11-16T00:51:37.878Z,8.45
2022-11-16T00:52:10.644Z,8.95
2022-11-16T00:52:42.563Z,11.02
2022-11-16T00:53:16.347Z,8.85
2022-11-16T00:53:49.321Z,8.77
2022-11-16T00:54:22.193Z,8.40
2022-11-16T00:54:54.027Z,9.40
2022-11-16T00:55:26.840Z,11.68
2022-11-16T00:55:58.883Z,8.25
2022-11-16T00:56:30.772Z,9.85
2022-11-16T00:57:03.585Z,9.65
2022-11-16T00:57:36.138Z,11.65
2022-11-16T00:58:07.981Z,8.90
2022-11-16T00:58:39.850Z,8.27
2022-11-16T00:59:12.669Z,10.68
2022-11-16T00:59:44.491Z,8.73
2022-11-16T01:00:17.564Z,9.75
2022-11-16T01:00:49.595Z,9.60
2022-11-16T01:01:22.585Z,8.75
2022-11-16T01:01:54.568Z,8.55
2022-11-16T01:02:27.803Z,9.25
2022-11-16T01:02:59.714Z,9.55
2022-11-16T01:03:32.534Z,9.93
2022-11-16T01:04:04.684Z,9.68
2022-11-16T01:04:36.556Z,9.07
2022-11-16T01:05:10.749Z,10.20
2022-11-16T01:05:42.667Z,9.15
2022-11-16T01:06:16.277Z,8.63
2022-11-16T01:06:49.197Z,9.27
2022-11-16T01:07:21.127Z,8.35
2022-11-16T01:07:53.329Z,9.38
2022-11-16T01:08:25.153Z,10.00
2022-11-16T01:08:57.958Z,8.88
2022-11-16T01:09:29.791Z,9.15
2022-11-16T01:10:01.858Z,9.68
2022-11-16T01:10:33.895Z,8.95
2022-11-16T01:11:21.795Z,8.35
2022-11-16T01:12:12.823Z,8.27
2022-11-16T01:12:45.541Z,9.30
2022-11-16T01:13:17.362Z,8.75
2022-11-16T01:13:49.896Z,10.73
2022-11-16T01:14:22.753Z,10.70
2022-11-16T01:14:54.653Z,9.20
2022-11-16T01:15:28.584Z,9.18
2022-11-16T01:16:00.429Z,8.27
2022-11-16T01:16:32.623Z,9.50
2022-11-16T01:17:05.948Z,10.23
2022-11-16T01:17:38.301Z,11.43
2022-11-16T01:18:10.152Z,8.90
2022-11-16T01:18:42.394Z,11.13
2022-11-16T01:19:15.251Z,10.13
2022-11-16T01:19:47.104Z,9.40
2022-11-16T01:20:21.096Z,9.57
2022-11-16T01:20:54.267Z,10.32
2022-11-16T01:21:27.645Z,9.90
2022-11-16T01:21:59.652Z,9.48
2022-11-16T01:22:32.639Z,10.52
2022-11-16T01:23:04.447Z,9.27
2022-11-16T01:23:36.260Z,9.32
2022-11-16T01:24:08.246Z,8.32
2022-11-16T01:24:41.191Z,8.30
2022-11-16T01:25:14.399Z,9.45
2022-11-16T01:25:46.216Z,9.30
2022-11-16T01:26:19.314Z,8.50
2022-11-16T01:26:51.199Z,10.55
2022-11-16T01:27:23.001Z,9.85
2022-11-16T01:27:55.784Z,10.15
2022-11-16T01:28:28.060Z,8.68
2022-11-16T01:29:00.094Z,11.43
2022-11-16T01:29:33.287Z,9.32
2022-11-16T01:30:07.266Z,10.40
2022-11-16T01:30:39.087Z,9.30
2022-11-16T01:31:12.388Z,8.23
2022-11-16T01:31:44.308Z,10.68
2022-11-16T01:32:17.094Z,9.55
2022-11-16T01:32:48.953Z,8.15
2022-11-16T01:33:21.105Z,9.30
2022-11-16T01:33:54.717Z,9.55
2022-11-16T01:34:26.588Z,9.13
2022-11-16T01:34:58.451Z,9.63
2022-11-16T01:35:31.213Z,9.02
2022-11-16T01:36:03.082Z,9.05
2022-11-16T01:36:36.811Z,9.02
2022-11-16T01:37:09.665Z,9.70
2022-11-16T01:37:41.496Z,9.27
2022-11-16T01:38:13.328Z,9.20
2022-11-16T01:38:47.703Z,9.07
2022-11-16T01:39:19.810Z,12.18
2022-11-16T01:39:51.736Z,9.30
2022-11-16T01:40:24.586Z,9.80
2022-11-16T01:40:56.456Z,9.23
2022-11-16T01:41:28.534Z,8.65
2022-11-16T01:42:01.405Z,9.25
2022-11-16T01:42:33.576Z,8.88
2022-11-16T01:43:15.741Z,9.55
2022-11-16T01:43:55.147Z,8.77
2022-11-16T01:44:55.354Z,9.77
2022-11-16T01:45:36.138Z,10.02
2022-11-16T01:46:07.975Z,10.20
2022-11-16T01:46:40.248Z,9.15
2022-11-16T01:47:13.930Z,9.35
2022-11-16T01:47:47.479Z,10.00
2022-11-16T01:48:24.203Z,9.30
2022-11-16T01:49:00.538Z,8.23
2022-11-16T01:49:35.970Z,10.80
2022-11-16T01:50:10.986Z,9.63
2022-11-16T01:50:44.849Z,8.35
2022-11-16T01:51:17.107Z,10.32
2022-11-16T01:51:57.035Z,9.63
2022-11-16T01:52:33.516Z,9.38
2022-11-16T01:53:07.377Z,8.93
2022-11-16T01:53:39.331Z,10.20
2022-11-16T01:54:14.612Z,10.45
2022-11-16T01:54:49.701Z,10.18
2022-11-16T01:55:23.743Z,10.52
2022-11-16T01:55:56.626Z,11.63
2022-11-16T01:56:31.500Z,10.40
2022-11-16T01:57:07.409Z,11.50
2022-11-16T01:57:42.425Z,10.70
2022-11-16T01:58:20.854Z,10.98
2022-11-16T01:58:53.464Z,10.10
2022-11-16T01:59:25.801Z,11.10
2022-11-16T02:00:00.747Z,10.85
2022-11-16T02:00:32.605Z,11.07
2022-11-16T02:01:04.497Z,10.70
2022-11-16T02:01:37.483Z,13.00
2022-11-16T02:02:09.412Z,10.70
2022-11-16T02:02:41.771Z,11.30
2022-11-16T02:03:14.612Z,10.57
2022-11-16T02:03:46.457Z,10.48
2022-11-16T02:04:18.249Z,11.00
2022-11-16T02:04:53.564Z,11.68
2022-11-16T02:05:32.059Z,11.35
2022-11-16T02:06:22.847Z,10.18
2022-11-16T02:07:03.735Z,12.23
2022-11-16T02:08:11.019Z,11.60
2022-11-16T02:09:12.206Z,13.57
2022-11-16T02:09:58.908Z,10.73
2022-11-16T02:10:46.350Z,11.65
2022-11-16T02:11:35.988Z,11.85
2022-11-16T02:12:26.856Z,12.60
2022-11-16T02:13:12.709Z,12.57
2022-11-16T02:13:55.788Z,12.80
2022-11-16T02:14:43.532Z,14.98
2022-11-16T02:15:24.529Z,12.18
2022-11-16T02:16:02.773Z,11.68
2022-11-16T02:16:41.367Z,10.35
2022-11-16T02:17:24.028Z,12.45
2022-11-16T02:18:06.843Z,12.77
2022-11-16T02:18:50.431Z,17.27
2022-11-16T02:19:53.370Z,13.20
2022-11-16T02:20:39.913Z,26.15
2022-11-16T02:21:23.937Z,20.58
2022-11-16T02:22:06.046Z,20.13
2022-11-16T02:22:56.836Z,18.80
2022-11-16T02:24:09.241Z,14.50
2022-11-16T02:24:47.113Z,15.40
2022-11-16T02:25:30.644Z,14.13
2022-11-16T02:26:18.193Z,14.45
2022-11-16T02:27:25.851Z,12.48
2022-11-16T02:28:13.833Z,12.25
2022-11-16T02:28:55.403Z,12.00
2022-11-16T02:29:33.432Z,14.70
2022-11-16T02:30:07.015Z,12.20
2022-11-16T02:30:44.288Z,14.10
2022-11-16T02:31:21.342Z,13.40
2022-11-16T02:32:00.446Z,20.27
2022-11-16T02:32:37.676Z,13.85
2022-11-16T02:33:13.647Z,12.52
2022-11-16T02:33:48.803Z,13.23
2022-11-16T02:34:23.127Z,13.65
2022-11-16T02:35:02.293Z,13.93
2022-11-16T02:35:40.602Z,13.88
2022-11-16T02:36:17.982Z,13.95
2022-11-16T02:36:54.320Z,13.93
2022-11-16T02:37:29.034Z,18.85
2022-11-16T02:38:08.114Z,14.48
2022-11-16T02:38:42.904Z,14.43
2022-11-16T02:39:18.778Z,15.95
2022-11-16T02:39:56.958Z,13.00
2022-11-16T02:40:31.803Z,14.13
2022-11-16T02:41:08.099Z,15.05
2022-11-16T02:41:43.744Z,14.32
2022-11-16T02:42:18.519Z,14.65
2022-11-16T02:42:52.929Z,14.93
2022-11-16T02:43:30.601Z,14.13
2022-11-16T02:44:08.106Z,15.35
2022-11-16T02:44:45.767Z,15.50
2022-11-16T02:45:23.180Z,14.30
2022-11-16T02:45:59.771Z,15.07
2022-11-16T02:46:36.627Z,15.27
2022-11-16T02:47:14.743Z,15.75
2022-11-16T02:47:48.102Z,20.67
2022-11-16T02:48:24.033Z,22.13
2022-11-16T02:49:01.646Z,18.38
2022-11-16T02:49:36.646Z,18.70
2022-11-16T02:50:14.654Z,17.05
2022-11-16T02:50:49.059Z,17.33
2022-11-16T02:51:22.745Z,15.45
2022-11-16T02:51:55.545Z,16.70
2022-11-16T02:52:30.005Z,16.73
2022-11-16T02:53:02.767Z,16.20
2022-11-16T02:53:41.054Z,16.15
2022-11-16T02:54:18.056Z,16.17
2022-11-16T02:54:49.859Z,15.82
2022-11-16T02:55:22.562Z,16.60
2022-11-16T02:55:56.288Z,17.05
2022-11-16T02:56:29.176Z,14.63
2022-11-16T02:57:28.539Z,15.30
2022-11-16T02:58:03.282Z,16.45
2022-11-16T02:58:35.510Z,14.60
2022-11-16T02:59:13.113Z,17.42
2022-11-16T02:59:55.931Z,14.98
2022-11-16T03:00:32.675Z,24.30
2022-11-16T03:01:09.900Z,18.95
2022-11-16T03:01:46.142Z,16.20
2022-11-16T03:02:24.957Z,25.70
2022-11-16T03:03:08.723Z,21.48
2022-11-16T03:03:47.375Z,18.70
2022-11-16T03:04:23.900Z,18.83
2022-11-16T03:05:02.350Z,16.55
2022-11-16T03:05:39.420Z,15.23
2022-11-16T03:06:17.377Z,17.65
2022-11-16T03:06:51.402Z,16.35
2022-11-16T03:07:27.437Z,18.00
2022-11-16T03:08:08.536Z,15.95
2022-11-16T03:08:43.097Z,15.38
2022-11-16T03:09:19.147Z,16.60
2022-11-16T03:09:53.014Z,15.93
2022-11-16T03:10:43.495Z,15.70
2022-11-16T03:11:30.405Z,19.63
2022-11-16T03:12:08.212Z,26.05
2022-11-16T03:12:41.526Z,18.15
2022-11-16T03:13:16.009Z,18.30
2022-11-16T03:13:50.316Z,16.98
2022-11-16T03:14:25.358Z,16.35
2022-11-16T03:15:01.288Z,16.00
2022-11-16T03:15:37.314Z,16.60
2022-11-16T03:16:14.774Z,15.55
2022-11-16T03:16:51.067Z,16.80
2022-11-16T03:17:29.155Z,16.08
2022-11-16T03:18:01.089Z,17.10
2022-11-16T03:18:34.131Z,16.05
2022-11-16T03:19:11.134Z,17.70
2022-11-16T03:19:47.967Z,15.52
2022-11-16T03:20:25.983Z,15.00
2022-11-16T03:21:07.544Z,16.10
2022-11-16T03:21:44.027Z,14.50
2022-11-16T03:22:22.368Z,14.68
2022-11-16T03:22:59.002Z,17.83
2022-11-16T03:23:30.901Z,14.50
2022-11-16T03:24:04.270Z,14.93
2022-11-16T03:24:36.608Z,14.90
2022-11-16T03:25:11.519Z,15.52
2022-11-16T03:25:50.525Z,14.75
2022-11-16T03:26:25.971Z,16.60
2022-11-16T03:27:05.412Z,15.43
2022-11-16T03:27:41.500Z,15.95
2022-11-16T03:28:19.831Z,15.23
2022-11-16T03:29:00.402Z,15.13
2022-11-16T03:29:39.404Z,14.75
2022-11-16T03:30:14.575Z,14.23
2022-11-16T03:30:52.515Z,14.95
2022-11-16T03:31:28.803Z,14.85
2022-11-16T03:32:10.901Z,14.98
2022-11-16T03:32:50.849Z,14.88
2022-11-16T03:33:29.715Z,17.63
2022-11-16T03:34:06.121Z,15.55
2022-11-16T03:34:41.508Z,14.70
2022-11-16T03:35:20.560Z,16.95
2022-11-16T03:35:59.562Z,14.65
2022-11-16T03:36:33.662Z,15.00
2022-11-16T03:37:07.364Z,16.08
2022-11-16T03:37:40.288Z,15.35
2022-11-16T03:38:15.356Z,13.75
2022-11-16T03:38:50.841Z,14.45
2022-11-16T03:39:26.109Z,15.93
2022-11-16T03:40:01.133Z,15.48
2022-11-16T03:40:36.084Z,15.23
2022-11-16T03:41:10.236Z,14.73
2022-11-16T03:41:44.237Z,15.18
2022-11-16T03:42:17.907Z,14.02
2022-11-16T03:42:50.550Z,14.32
2022-11-16T03:43:23.929Z,13.52
2022-11-16T03:43:58.986Z,14.27
2022-11-16T03:44:30.919Z,15.70
2022-11-16T03:45:04.048Z,15.60
2022-11-16T03:45:37.763Z,14.68
2022-11-16T03:46:10.863Z,14.27
2022-11-16T03:46:44.335Z,14.70
2022-11-16T03:47:16.203Z,15.02
2022-11-16T03:47:49.168Z,15.63
2022-11-16T03:48:21.036Z,14.98
2022-11-16T03:48:58.253Z,14.00
2022-11-16T03:49:32.080Z,15.10
2022-11-16T03:50:04.443Z,17.13
2022-11-16T03:50:36.283Z,14.27
2022-11-16T03:51:11.607Z,14.25
2022-11-16T03:51:43.531Z,13.70
2022-11-16T03:52:17.279Z,15.35
2022-11-16T03:52:50.237Z,15.05
2022-11-16T03:53:22.038Z,15.55
2022-11-16T03:53:53.958Z,15.20
2022-11-16T03:54:27.011Z,15.10
2022-11-16T03:54:58.809Z,14.23
2022-11-16T03:55:30.639Z,14.30
2022-11-16T03:56:03.659Z,14.65
2022-11-16T03:56:35.494Z,15.25
2022-11-16T03:57:07.306Z,14.70
2022-11-16T03:57:40.144Z,14.93
2022-11-16T03:58:11.984Z,15.20
2022-11-16T03:58:43.814Z,16.33
2022-11-16T03:59:16.620Z,15.20
2022-11-16T03:59:48.417Z,15.80
2022-11-16T04:00:20.470Z,15.82
2022-11-16T04:00:54.737Z,15.13
2022-11-16T04:01:26.662Z,14.95
2022-11-16T04:01:58.553Z,14.68
2022-11-16T04:02:31.402Z,15.32
2022-11-16T04:03:03.270Z,14.18
2022-11-16T04:03:35.128Z,16.75
2022-11-16T04:04:28.020Z,16.10
2022-11-16T04:05:26.916Z,15.35
2022-11-16T04:06:17.087Z,14.75
2022-11-16T04:07:07.340Z,14.48
2022-11-16T04:07:57.814Z,14.15
2022-11-16T04:08:48.438Z,14.70
2022-11-16T04:09:39.045Z,14.32
2022-11-16T04:10:29.616Z,14.02
2022-11-16T04:11:20.008Z,15.55
2022-11-16T04:12:10.934Z,15.13
2022-11-16T04:13:02.868Z,14.38
2022-11-16T04:13:53.693Z,15.15
2022-11-16T04:14:45.226Z,14.82
2022-11-16T04:15:35.588Z,13.30
2022-11-16T04:16:34.050Z,15.02
2022-11-16T04:17:29.436Z,14.80
2022-11-16T04:18:19.719Z,16.45
2022-11-16T04:19:10.116Z,15.65
2022-11-16T04:20:00.474Z,14.80
2022-11-16T04:20:51.045Z,13.82
2022-11-16T04:21:44.415Z,15.30
2022-11-16T04:22:38.336Z,15.30
2022-11-16T04:23:33.414Z,14.48
2022-11-16T04:24:13.083Z,14.50
2022-11-16T04:24:50.564Z,17.48
2022-11-16T04:25:27.931Z,14.40
2022-11-16T04:26:00.370Z,14.10
2022-11-16T04:26:51.123Z,16.17
2022-11-16T04:27:45.573Z,13.35
2022-11-16T04:28:20.423Z,15.00
2022-11-16T04:28:52.272Z,13.73
2022-11-16T04:29:25.816Z,16.05
2022-11-16T04:29:59.545Z,13.93
2022-11-16T04:30:54.316Z,14.85
2022-11-16T04:31:45.936Z,14.60
2022-11-16T04:32:36.487Z,14.00
2022-11-16T04:33:26.931Z,14.20
2022-11-16T04:34:17.292Z,14.27
2022-11-16T04:35:07.619Z,15.73
2022-11-16T04:35:58.182Z,14.30
2022-11-16T04:36:45.756Z,14.38
2022-11-16T04:37:37.100Z,15.13
2022-11-16T04:38:09.908Z,14.95
2022-11-16T04:38:41.776Z,16.20
2022-11-16T04:39:13.734Z,17.15
2022-11-16T04:39:46.508Z,15.85
2022-11-16T04:40:20.066Z,16.73
2022-11-16T04:40:51.864Z,16.25
2022-11-16T04:41:41.944Z,14.63
2022-11-16T04:42:22.154Z,15.60
2022-11-16T04:42:55.257Z,15.45
2022-11-16T04:43:27.135Z,13.48
2022-11-16T04:43:58.996Z,15.00
2022-11-16T04:44:48.893Z,14.82
2022-11-16T04:45:51.390Z,17.20
2022-11-16T04:46:41.749Z,13.75
2022-11-16T04:47:15.879Z,14.27
2022-11-16T04:47:48.925Z,14.88
2022-11-16T04:48:21.982Z,14.15
2022-11-16T04:48:53.795Z,14.98
2022-11-16T04:49:25.631Z,15.13
2022-11-16T04:49:58.432Z,14.55
2022-11-16T04:50:30.422Z,14.68
2022-11-16T04:51:02.248Z,14.52
2022-11-16T04:51:34.036Z,16.48
2022-11-16T04:52:06.859Z,15.50
2022-11-16T04:52:38.672Z,15.13
2022-11-16T04:53:11.100Z,14.32
2022-11-16T04:53:43.909Z,16.48
2022-11-16T04:54:15.807Z,15.15
2022-11-16T04:54:47.630Z,16.15
2022-11-16T04:55:20.468Z,16.13
2022-11-16T04:55:54.385Z,15.25
2022-11-16T04:56:28.446Z,14.35
2022-11-16T04:57:00.261Z,15.88
2022-11-16T04:57:33.172Z,14.98
2022-11-16T04:58:05.385Z,15.10
2022-11-16T04:58:37.205Z,14.13
2022-11-16T04:59:10.275Z,15.15
2022-11-16T04:59:42.103Z,15.38
2022-11-16T05:00:15.126Z,14.40
2022-11-16T05:00:47.915Z,15.65
2022-11-16T05:01:40.657Z,15.38
2022-11-16T05:02:15.089Z,16.77
2022-11-16T05:02:47.891Z,15.00
2022-11-16T05:03:19.670Z,18.15
2022-11-16T05:03:51.468Z,17.42
2022-11-16T05:04:24.290Z,18.10
2022-11-16T05:04:56.163Z,17.20
2022-11-16T05:05:29.190Z,16.15
2022-11-16T05:06:01.073Z,16.95
2022-11-16T05:06:32.974Z,17.95
2022-11-16T05:07:10.666Z,16.20
2022-11-16T05:07:43.050Z,16.02
2022-11-16T05:08:14.866Z,14.75
2022-11-16T05:08:47.667Z,14.93
2022-11-16T05:09:19.488Z,16.55
2022-11-16T05:09:51.335Z,15.27
2022-11-16T05:10:24.111Z,14.32
2022-11-16T05:10:55.884Z,15.70
2022-11-16T05:11:28.015Z,17.55
2022-11-16T05:12:00.789Z,15.27
2022-11-16T05:12:33.030Z,15.55
2022-11-16T05:13:05.829Z,16.33
2022-11-16T05:13:37.627Z,15.00
2022-11-16T05:14:09.820Z,15.80
2022-11-16T05:14:42.744Z,16.27
2022-11-16T05:15:14.677Z,16.15
2022-11-16T05:15:47.683Z,15.63
2022-11-16T05:16:19.524Z,15.82
2022-11-16T05:16:51.370Z,15.50
2022-11-16T05:17:26.300Z,18.38
2022-11-16T05:17:59.127Z,15.18
2022-11-16T05:18:31.056Z,16.27
2022-11-16T05:19:21.893Z,15.38
2022-11-16T05:20:12.216Z,15.48
2022-11-16T05:21:02.505Z,14.90
2022-11-16T05:21:34.321Z,16.05
2022-11-16T05:22:06.127Z,15.00
2022-11-16T05:22:39.272Z,15.00
2022-11-16T05:23:26.373Z,16.33
2022-11-16T05:24:16.625Z,16.27
2022-11-16T05:24:48.458Z,15.60
2022-11-16T05:25:21.234Z,17.70
2022-11-16T05:25:53.027Z,15.18
2022-11-16T05:26:24.830Z,15.18
2022-11-16T05:26:56.624Z,14.85
2022-11-16T05:27:30.648Z,14.80
2022-11-16T05:28:02.989Z,14.60
2022-11-16T05:28:35.137Z,15.18
2022-11-16T05:29:07.221Z,15.52
2022-11-16T05:29:40.461Z,15.65
2022-11-16T05:30:13.132Z,16.70
2022-11-16T05:30:45.757Z,14.68
2022-11-16T05:31:18.557Z,16.02
2022-11-16T05:31:50.537Z,15.80
2022-11-16T05:32:25.749Z,14.40
2022-11-16T05:32:58.601Z,15.90
2022-11-16T05:33:30.500Z,16.13
2022-11-16T05:34:02.448Z,13.77
2022-11-16T05:34:35.719Z,14.25
2022-11-16T05:35:08.423Z,15.57
2022-11-16T05:35:40.410Z,15.20
2022-11-16T05:36:13.221Z,16.98
2022-11-16T05:36:45.092Z,15.25
2022-11-16T05:37:19.085Z,15.55
2022-11-16T05:37:51.038Z,15.60
2022-11-16T05:38:23.869Z,15.63
2022-11-16T05:38:56.474Z,14.73
2022-11-16T05:39:28.583Z,14.70
2022-11-16T05:40:01.475Z,14.65
2022-11-16T05:40:33.346Z,16.95
2022-11-16T05:41:05.411Z,14.82
2022-11-16T05:41:38.215Z,14.45
2022-11-16T05:42:10.375Z,15.38
2022-11-16T05:42:42.262Z,15.10
2022-11-16T05:43:15.065Z,14.32
2022-11-16T05:43:46.881Z,14.48
2022-11-16T05:44:19.167Z,15.15
2022-11-16T05:44:51.945Z,15.80
2022-11-16T05:45:23.752Z,19.33
2022-11-16T05:45:55.549Z,14.98
2022-11-16T05:46:28.355Z,15.05
2022-11-16T05:47:00.787Z,13.98
2022-11-16T05:47:33.943Z,14.48
2022-11-16T05:48:06.780Z,13.82
2022-11-16T05:48:38.601Z,15.50
2022-11-16T05:49:11.812Z,15.48
2022-11-16T05:49:44.602Z,14.70
2022-11-16T05:50:16.563Z,18.40
2022-11-16T05:50:48.370Z,14.63
2022-11-16T05:51:21.389Z,14.77
2022-11-16T05:51:56.052Z,15.02
2022-11-16T05:52:28.840Z,15.75
2022-11-16T05:53:00.755Z,15.73
2022-11-16T05:53:32.557Z,15.07
2022-11-16T05:54:06.352Z,13.55
2022-11-16T05:54:38.205Z,13.98
2022-11-16T05:55:10.369Z,14.18
2022-11-16T05:55:43.381Z,13.13
2022-11-16T05:56:16.069Z,15.20
2022-11-16T05:56:48.792Z,15.68
2022-11-16T05:57:21.568Z,13.73
2022-11-16T05:57:53.343Z,13.85
2022-11-16T05:58:25.218Z,14.20
2022-11-16T05:58:59.034Z,14.98
2022-11-16T05:59:30.971Z,14.85
2022-11-16T06:00:04.528Z,14.35
2022-11-16T06:00:36.305Z,15.15
2022-11-16T06:01:08.428Z,15.25
2022-11-16T06:01:41.310Z,14.90
2022-11-16T06:02:13.188Z,15.00
2022-11-16T06:02:46.421Z,16.17
2022-11-16T06:03:18.297Z,20.63
2022-11-16T06:03:51.152Z,16.27
2022-11-16T06:04:24.458Z,13.32
2022-11-16T06:04:57.642Z,15.60
2022-11-16T06:05:29.441Z,14.43
2022-11-16T06:06:01.802Z,15.73
2022-11-16T06:06:34.883Z,15.70
2022-11-16T06:07:06.750Z,15.18
2022-11-16T06:07:38.652Z,16.20
2022-11-16T06:08:10.463Z,15.65
2022-11-16T06:08:43.286Z,15.60
2022-11-16T06:09:15.324Z,15.10
2022-11-16T06:09:48.136Z,13.52
2022-11-16T06:10:20.051Z,13.85
2022-11-16T06:10:51.894Z,13.88
2022-11-16T06:11:25.033Z,14.20
2022-11-16T06:11:58.542Z,16.15
2022-11-16T06:12:31.340Z,22.73
2022-11-16T06:13:03.335Z,16.55
2022-11-16T06:13:35.592Z,16.90
2022-11-16T06:14:08.467Z,18.00
2022-11-16T06:14:40.346Z,32.03
2022-11-16T06:15:12.156Z,21.92
2022-11-16T06:15:50.149Z,23.75
2022-11-16T06:16:23.018Z,16.90
2022-11-16T06:16:54.886Z,18.00
2022-11-16T06:17:26.792Z,16.70
2022-11-16T06:18:00.975Z,19.75
2022-11-16T06:18:36.728Z,16.17
2022-11-16T06:19:09.740Z,12.85
2022-11-16T06:19:41.883Z,14.40
2022-11-16T06:20:13.901Z,16.27
2022-11-16T06:20:46.675Z,16.30
2022-11-16T06:21:19.349Z,15.57
2022-11-16T06:21:52.206Z,14.48
2022-11-16T06:22:24.013Z,20.02
2022-11-16T06:22:55.848Z,17.05
2022-11-16T06:23:28.660Z,15.77
2022-11-16T06:24:02.487Z,23.63
2022-11-16T06:24:34.306Z,21.85
2022-11-16T06:25:07.776Z,23.20
2022-11-16T06:25:40.199Z,23.27
2022-11-16T06:26:12.410Z,19.65
2022-11-16T06:26:47.003Z,17.70
2022-11-16T06:27:18.811Z,16.67
2022-11-16T06:27:50.695Z,15.40
2022-11-16T06:28:24.038Z,14.23
2022-11-16T06:28:55.910Z,13.48
2022-11-16T06:29:28.760Z,14.85
2022-11-16T06:30:00.783Z,14.55
2022-11-16T06:30:32.677Z,13.98
2022-11-16T06:31:06.011Z,13.82
2022-11-16T06:31:37.877Z,15.35
2022-11-16T06:32:10.663Z,16.38
2022-11-16T06:32:42.653Z,16.75
2022-11-16T06:33:16.177Z,16.30
2022-11-16T06:33:48.970Z,15.38
2022-11-16T06:34:20.755Z,13.88
2022-11-16T06:34:52.549Z,15.50
2022-11-16T06:35:25.327Z,15.18
2022-11-16T06:35:57.142Z,14.45
2022-11-16T06:36:30.162Z,16.88
2022-11-16T06:37:01.975Z,13.23
2022-11-16T06:37:34.248Z,12.85
2022-11-16T06:38:07.495Z,14.02
2022-11-16T06:38:39.341Z,15.27
2022-11-16T06:39:13.754Z,13.80
2022-11-16T06:39:45.634Z,20.80
2022-11-16T06:40:17.873Z,14.38
2022-11-16T06:40:51.721Z,14.23
2022-11-16T06:41:24.555Z,12.70
2022-11-16T06:41:56.366Z,19.75
2022-11-16T06:42:28.156Z,12.25
2022-11-16T06:43:01.002Z,14.27
2022-11-16T06:43:32.847Z,13.20
2022-11-16T06:44:05.656Z,13.32
2022-11-16T06:44:37.463Z,11.38
2022-11-16T06:45:09.971Z,11.98
2022-11-16T06:45:42.792Z,13.18
2022-11-16T06:46:14.641Z,13.02
2022-11-16T06:46:47.886Z,12.27
2022-11-16T06:47:19.731Z,14.18
2022-11-16T06:47:51.711Z,11.50
2022-11-16T06:48:26.635Z,12.23
2022-11-16T06:48:58.466Z,12.70
2022-11-16T06:49:30.740Z,12.90
2022-11-16T06:50:03.799Z,12.65
2022-11-16T06:50:35.701Z,11.65
2022-11-16T06:51:08.713Z,12.82
2022-11-16T06:51:40.607Z,12.68
2022-11-16T06:52:12.455Z,11.38
2022-11-16T06:52:46.624Z,12.50
2022-11-16T06:53:19.264Z,13.32
2022-11-16T06:53:51.232Z,11.50
2022-11-16T06:54:24.148Z,12.10
2022-11-16T06:54:56.130Z,13.02
2022-11-16T06:55:28.123Z,13.30
2022-11-16T06:56:03.067Z,11.73
2022-11-16T06:56:35.306Z,14.05
2022-11-16T06:57:07.108Z,14.95
2022-11-16T06:57:40.086Z,11.65
2022-11-16T06:58:12.011Z,13.15
2022-11-16T06:58:44.823Z,12.73
2022-11-16T06:59:16.669Z,14.60
2022-11-16T06:59:48.532Z,11.57
2022-11-16T07:00:21.487Z,12.82
2022-11-16T07:00:53.297Z,12.80
2022-11-16T07:01:25.175Z,12.10
2022-11-16T07:01:58.090Z,15.43
2022-11-16T07:02:30.008Z,13.35
2022-11-16T07:03:02.649Z,16.05
2022-11-16T07:03:36.850Z,12.32
2022-11-16T07:04:11.832Z,12.00
2022-11-16T07:04:44.316Z,12.18
2022-11-16T07:05:17.184Z,13.02
2022-11-16T07:05:49.021Z,11.88
2022-11-16T07:06:21.829Z,15.00
2022-11-16T07:06:53.860Z,10.00
2022-11-16T07:07:25.803Z,13.60
2022-11-16T07:07:58.816Z,11.50
2022-11-16T07:08:30.700Z,11.27
2022-11-16T07:09:06.666Z,11.88
2022-11-16T07:09:38.477Z,11.02
2022-11-16T07:10:10.616Z,11.70
2022-11-16T07:10:43.376Z,10.65
2022-11-16T07:11:15.219Z,11.13
2022-11-16T07:11:47.036Z,10.95
2022-11-16T07:12:19.854Z,14.23
2022-11-16T07:12:51.659Z,12.40
2022-11-16T07:13:24.459Z,10.07
2022-11-16T07:13:56.269Z,9.70
2022-11-16T07:14:28.045Z,10.23
2022-11-16T07:15:00.792Z,10.73
2022-11-16T07:15:33.258Z,11.10
2022-11-16T07:16:07.414Z,12.07
2022-11-16T07:16:39.284Z,13.55
2022-11-16T07:17:11.373Z,11.65
2022-11-16T07:17:44.237Z,12.80
2022-11-16T07:18:16.064Z,10.70
2022-11-16T07:18:50.179Z,13.00
2022-11-16T07:19:22.044Z,10.52
2022-11-16T07:19:53.874Z,10.52
2022-11-16T07:20:26.951Z,10.77
2022-11-16T07:20:58.733Z,11.57
2022-11-16T07:21:30.806Z,11.38
2022-11-16T07:22:04.189Z,12.90
2022-11-16T07:22:36.074Z,11.32
2022-11-16T07:23:11.436Z,10.32
2022-11-16T07:23:46.945Z,9.80
2022-11-16T07:24:18.851Z,11.40
2022-11-16T07:24:50.679Z,11.40
2022-11-16T07:25:23.447Z,11.25
2022-11-16T07:25:59.238Z,11.40
2022-11-16T07:26:33.625Z,10.52
2022-11-16T07:27:07.026Z,11.02
2022-11-16T07:27:38.990Z,10.50
2022-11-16T07:28:11.778Z,9.50
2022-11-16T07:28:48.164Z,11.80
2022-11-16T07:29:21.448Z,11.25
2022-11-16T07:29:54.221Z,10.23
2022-11-16T07:30:26.423Z,10.35
2022-11-16T07:31:01.400Z,10.10
2022-11-16T07:31:34.166Z,16.02
2022-11-16T07:32:06.060Z,9.57
2022-11-16T07:33:33.931Z,11.50
2022-11-16T07:35:01.391Z,10.68
2022-11-16T07:36:29.611Z,8.68
2022-11-16T07:37:57.448Z,9.68
2022-11-16T07:39:25.390Z,9.45
2022-11-16T07:40:53.162Z,10.73